Flight Track Log - Related Links

Times and Time Zones

All times are in EDT time to prevent confusion due to time zone crossing. See the RLI811 flight status page for this flight to view local times or setup timezone preferences in your user account.

Time Position Orientation Groundspeed Altitude Reporting Facility
EDT Latitude Longitude Course Direction KTS MPH feet Rate Location/Type
Tue 02:54:45 PM 41.2542 -70.7614 268° West 167 192 5,900  Level Boston Center
Tue 02:55:33 PM 41.2528 -70.8083 268° West 167 192 5,900  Level Boston Center
Tue 02:56:34 PM 41.2475 -70.8692 263° West 169 194 5,900  Level Boston Center
Tue 02:57:35 PM 41.2419 -70.9300 269° West 167 192 5,900  Level Boston Center
Tue 02:58:35 PM 41.2344 -70.9908 261° West 167 192 5,900  Level Boston Center
Tue 02:59:36 PM 41.2247 -71.0575 259° West 169 194 5,900  Level Boston Center
Tue 03:00:37 PM 41.2194 -71.1183 263° West 167 192 5,900  Level Boston Center
Tue 03:01:37 PM 41.2139 -71.1819 263° West 169 194 5,900  Level Boston Center
Tue 03:02:38 PM 41.2083 -71.2428 263° West 168 193 5,900  Level Boston Center
Tue 03:03:39 PM 41.2006 -71.3036 260° West 169 194 5,900  Level Boston Center
Tue 03:04:40 PM 41.1928 -71.3644 260° West 169 194 5,900  Level Boston Center
Tue 03:05:41 PM 41.1872 -71.4306 264° West 169 194 5,900  Level Boston Center
Tue 03:06:41 PM 41.1814 -71.4914 263° West 169 194 5,900  Level Boston Center
Tue 03:07:42 PM 41.1714 -71.5550 258° West 170 196 5,900  Level Boston Center
Tue 03:08:43 PM 41.1636 -71.6156 260° West 167 192 5,900  Level Boston Center
Tue 03:09:43 PM 41.1661 -71.6792 273° West 171 197 5,900  Level Boston Center
Tue 03:10:44 PM 41.1644 -71.7425 268° West 170 196 5,900  Level Boston Center
Tue 03:11:45 PM 41.1647 -71.8031 270° West 175 201 5,900  Level Boston Center
Tue 03:12:46 PM 41.1653 -71.8722 271° West 169 194 5,900  Level Boston Center
Tue 03:13:47 PM 41.1633 -71.9328 268° West 169 194 5,900  Level Boston Center
Tue 03:15:35 PM 41.1667 -72.0500 272° West 171 197 5,900  Level New York TRACON
Tue 03:16:35 PM 41.1667 -72.1000 270° West 172 198 5,900  Level New York TRACON
Tue 03:17:35 PM 41.1667 -72.1667 270° West 175 201 5,900  Level New York TRACON
Tue 03:18:41 PM 41.1667 -72.2333 270° West 174 200 5,900  Level New York TRACON
Tue 03:19:41 PM 41.1500 -72.3000 252° West 173 199 5,900  Level New York TRACON
Tue 03:20:35 PM 41.1500 -72.3667 270° West 172 198 5,900  Level New York TRACON
Tue 03:21:41 PM 41.1500 -72.4333 270° West 175 201 5,900  Level New York TRACON
Tue 03:22:41 PM 41.1500 -72.5000 270° West 177 204 5,900  Level New York TRACON
Tue 03:23:41 PM 41.1500 -72.5667 270° West 178 205 5,900  Level New York TRACON
Tue 03:24:41 PM 41.1500 -72.6167 270° West 177 204 5,900  Level New York TRACON
Tue 03:25:41 PM 41.1500 -72.6833 270° West 178 205 5,900  Level New York TRACON
Tue 03:26:35 PM 41.1667 -72.7500 288° West 179 206 5,900  Level New York TRACON
Tue 03:27:41 PM 41.1667 -72.8167 270° West 178 205 5,900  Level New York TRACON
Tue 03:28:41 PM 41.1667 -72.8833 270° West 177 204 5,900  Level New York TRACON
Tue 03:29:41 PM 41.1667 -72.9500 270° West 178 205 5,900  Level New York TRACON
Tue 03:30:41 PM 41.1667 -73.0167 270° West 177 204 5,900  Level New York TRACON
Tue 03:31:41 PM 41.1667 -73.0833 270° West 174 200 5,900 -250 Level New York TRACON
Tue 03:32:41 PM 41.1667 -73.1333 270° West 176 203 5,400 -600 Descending New York TRACON
Tue 03:33:41 PM 41.1667 -73.2000 270° West 177 204 4,700 -700 Descending New York TRACON
Tue 03:34:41 PM 41.1667 -73.2667 270° West 174 200 4,000 -400 Descending New York TRACON
Tue 03:35:41 PM 41.1833 -73.3333 288° West 151 174 3,900 -200 Descending New York TRACON
Tue 03:36:41 PM 41.1833 -73.3833 270° West 131 151 3,600 -500 Descending New York TRACON
Tue 03:37:41 PM 41.1833 -73.4333 270° West 139 160 2,900 -350 Descending New York TRACON
Tue 03:38:41 PM 41.2000 -73.4667 304° West 142 163 2,900 -500 Level New York TRACON
Tue 03:39:41 PM 41.2333 -73.5000 323° Northwest 166 191 1,900 -450 Descending New York TRACON
Tue 03:40:41 PM 41.2667 -73.5167 339° North 161 185 2,000 50 Climbing New York TRACON
Tue 03:41:41 PM 41.3167 -73.5333 346° North 157 181 2,000 -100 Level New York TRACON
Tue 03:42:41 PM 41.3500 -73.5000 37° Northeast 141 162 1,800 -200 Descending New York TRACON
Tue 03:43:41 PM 41.3833 -73.5167 339° North 130 150 1,600 -200 Descending New York TRACON
Tue 03:45:00 PM 41.3715 -73.4822 14° North  Level Estimated
Tue 03:52:00 PM 41.3715 -73.4822 14° North  Level Estimated
Tue 03:53:00 PM 41.3715 -73.4822 14° North  Level Estimated
Tue 03:54:00 PM 41.3715 -73.4822 14° North  Level Estimated
Tue 03:55:00 PM 41.3715 -73.4822 14° North  Level Estimated

Login

Don't have an account? Register now (free) for customized features, flight alerts, and more!